Time;durP1;ratioP1;P1;durP2;ratioP2;P2;SDS_P1;SDS_P2;PMS_P1;PMS_P2;Temp;Humidity;BMP_temperature;BMP_pressure;BME280_temperature;BME280_humidity;BME280_pressure;Samples;Min_cycle;Max_cycle;Signal;HPM_P1;HPM_P2
2022/06/20 01:33:42;;;;;;;0.98;0.52;;;;;;;-145.06;0.00;60892.56;5865447;23;20023;-92
2022/06/20 01:40:15;;;;;;;0.95;0.40;;;;;;;-145.06;0.00;60892.56;5924214;23;20441;-91
2022/06/20 01:43:34;;;;;;;0.85;0.50;;;;;;;-145.06;0.00;60892.56;5927563;23;20006;-90
2022/06/20 01:46:23;;;;;;;1.10;0.50;;;;;;;-145.06;0.00;60892.56;5914040;23;20006;-92
2022/06/20 01:49:23;;;;;;;1.30;0.60;;;;;;;-145.06;0.00;60892.56;5914507;23;20006;-92
2022/06/20 01:52:22;;;;;;;0.60;0.50;;;;;;;-145.06;0.00;60892.56;5914571;23;20073;-93
2022/06/20 01:55:26;;;;;;;0.57;0.47;;;;;;;-145.06;0.00;60892.56;5954083;23;19994;-93
2022/06/20 01:58:49;;;;;;;;;;;;;;;;;;;;;
2022/06/20 02:02:21;;;;;;;1.55;0.73;;;;;;;-145.06;0.00;60892.56;5924417;23;20033;-92
2022/06/20 02:09:06;;;;;;;1.67;0.98;;;;;;;-145.06;0.00;60892.56;5924652;23;20010;-93
2022/06/20 02:12:19;;;;;;;1.05;0.73;;;;;;;-145.06;0.00;60892.56;5913430;23;20010;-95
2022/06/20 02:15:25;;;;;;;;;;;;;;;;;;;;;
2022/06/20 02:18:41;;;;;;;0.95;0.55;;;;;;;-145.06;0.00;60892.56;5924551;23;20496;-94
2022/06/20 02:21:50;;;;;;;1.48;0.70;;;;;;;-145.06;0.00;60892.56;5913958;23;20433;-93
2022/06/20 02:25:14;;;;;;;1.30;0.70;;;;;;;-145.06;0.00;60892.56;5914583;23;20002;-93
2022/06/20 02:28:10;;;;;;;1.10;0.73;;;;;;;-145.06;0.00;60892.56;5914056;23;20006;-93
2022/06/20 02:34:21;;;;;;;1.25;0.75;;;;;;;-145.06;0.00;60892.56;5924502;23;20002;-94
2022/06/20 02:37:53;;;;;;;0.80;0.63;;;;;;;-145.06;0.00;60892.56;5913479;23;20010;-94
2022/06/20 02:41:06;;;;;;;1.63;0.80;;;;;;;-145.06;0.00;60892.56;5913499;23;20504;-93
2022/06/20 03:57:00;;;;;;;0.90;0.80;;;;;;;-145.06;0.00;60892.56;5888226;23;20554;-95
2022/06/20 04:00:15;;;;;;;1.58;0.95;;;;;;;-145.06;0.00;60892.56;5867034;23;20011;-94
2022/06/20 04:20:29;;;;;;;;;;;;;;;;;;;;;
2022/06/20 04:24:10;;;;;;;1.85;1.00;;;;;;;-145.06;0.00;60892.56;5757473;24;20009;-91
2022/06/20 04:34:08;;;;;;;1.65;1.10;;;;;;;-145.06;0.00;60892.56;5896775;23;20058;-93
2022/06/20 04:36:50;;;;;;;1.38;1.00;;;;;;;-145.06;0.00;60892.56;5866313;23;20426;-92
2022/06/20 04:43:36;;;;;;;1.00;0.60;;;;;;;-145.06;0.00;60892.56;5863535;23;20018;-93
2022/06/20 04:46:31;;;;;;;1.42;0.70;;;;;;;-145.06;0.00;60892.56;5865956;23;19999;-92
2022/06/20 04:49:46;;;;;;;1.25;0.60;;;;;;;-145.06;0.00;60892.56;5869187;23;20007;-93
2022/06/20 04:55:56;;;;;;;1.48;0.68;;;;;;;-145.06;0.00;60892.56;5912907;23;20027;-93
2022/06/20 05:08:52;;;;;;;1.38;0.60;;;;;;;-145.06;0.00;60892.56;5936291;23;20021;-93
2022/06/20 05:11:51;;;;;;;0.88;0.40;;;;;;;-145.06;0.00;60892.56;5942860;23;20006;-94
2022/06/20 05:15:20;;;;;;;;;;;;;;;;;;;;;
2022/06/20 05:21:19;;;;;;;0.77;0.57;;;;;;;-145.06;0.00;60892.56;5953451;23;20084;-93
2022/06/20 05:24:04;;;;;;;1.77;0.80;;;;;;;-145.06;0.00;60892.56;5942453;23;20037;-94
2022/06/20 05:26:48;;;;;;;1.15;0.60;;;;;;;-145.06;0.00;60892.56;5943465;23;20010;-92
2022/06/20 05:29:37;;;;;;;2.00;0.50;;;;;;;-145.06;0.00;60892.56;5943823;23;20002;-93
2022/06/20 05:32:45;;;;;;;0.47;0.45;;;;;;;-145.06;0.00;60892.56;5943102;23;20002;-93
2022/06/20 05:35:32;;;;;;;0.95;0.40;;;;;;;-145.06;0.00;60892.56;5942837;23;20005;-93
2022/06/20 05:38:27;;;;;;;1.48;0.45;;;;;;;-145.06;0.00;60892.56;5942858;23;20005;-92
2022/06/20 05:41:13;;;;;;;0.98;0.52;;;;;;;-145.06;0.00;60892.56;5942590;23;20448;-93
2022/06/20 05:44:13;;;;;;;1.60;0.80;;;;;;;-145.06;0.00;60892.56;5942884;23;20005;-92
2022/06/20 05:47:21;;;;;;;2.67;0.88;;;;;;;-145.06;0.00;60892.56;5942864;23;20478;-92
2022/06/20 05:50:13;;;;;;;2.17;0.75;;;;;;;-145.06;0.00;60892.56;5941962;23;20088;-93
2022/06/20 05:53:07;;;;;;;0.80;0.55;;;;;;;-145.06;0.00;60892.56;5942587;23;20033;-93
2022/06/20 05:55:55;;;;;;;2.42;0.80;;;;;;;-145.06;0.00;60892.56;5942325;23;20436;-92
2022/06/20 05:58:40;;;;;;;1.20;0.57;;;;;;;-145.06;0.00;60892.56;5940877;23;20005;-92
2022/06/20 06:01:30;;;;;;;1.20;0.55;;;;;;;-145.06;0.00;60892.56;5941971;23;20032;-95
2022/06/20 06:04:35;;;;;;;0.55;0.50;;;;;;;-145.06;0.00;60892.56;5941786;23;20006;-94
2022/06/20 06:11:07;;;;;;;2.60;0.50;;;;;;;-145.06;0.00;60892.56;5950440;23;20080;-93
2022/06/20 06:14:01;;;;;;;0.85;0.50;;;;;;;-145.06;0.00;60892.56;5939762;23;20006;-94
2022/06/20 06:16:50;;;;;;;0.60;0.50;;;;;;;-145.06;0.00;60892.56;5939884;23;20009;-95
2022/06/20 06:23:27;;;;;;;0.90;0.50;;;;;;;-145.06;0.00;60892.56;5884870;23;20088;-92
2022/06/20 06:26:11;;;;;;;1.33;0.43;;;;;;;-145.06;0.00;60892.56;5940983;23;20033;-94
2022/06/20 06:29:00;;;;;;;0.50;0.38;;;;;;;-145.06;0.00;60892.56;5940269;23;20271;-94
2022/06/20 06:31:42;;;;;;;0.80;0.40;;;;;;;-145.06;0.00;60892.56;5940318;23;20009;-93
2022/06/20 06:34:48;;;;;;;0.68;0.45;;;;;;;-145.06;0.00;60892.56;5939643;23;20037;-94
2022/06/20 06:37:37;;;;;;;0.55;0.30;;;;;;;-145.06;0.00;60892.56;5939554;23;20037;-93
2022/06/20 06:40:19;;;;;;;1.87;0.50;;;;;;;-145.06;0.00;60892.56;5939702;23;20005;-94
2022/06/20 06:43:02;;;;;;;0.95;0.38;;;;;;;-145.06;0.00;60892.56;5939221;23;20325;-93
2022/06/20 06:45:46;;;;;;;1.20;0.30;;;;;;;-145.06;0.00;60892.56;5940491;23;20006;-93
2022/06/20 06:48:42;;;;;;;1.02;0.20;;;;;;;-145.06;0.00;60892.56;5940034;23;20018;-93
2022/06/20 06:51:35;;;;;;;1.45;0.50;;;;;;;-145.06;0.00;60892.56;5939955;23;20006;-94
2022/06/20 06:54:21;;;;;;;0.70;0.40;;;;;;;-145.06;0.00;60892.56;5939760;23;20037;-92
2022/06/20 06:57:09;;;;;;;1.13;0.40;;;;;;;-145.06;0.00;60892.56;5939445;23;20448;-93
2022/06/20 06:59:56;;;;;;;1.52;0.68;;;;;;;-145.06;0.00;60892.56;5939984;23;20009;-91
2022/06/20 07:02:55;;;;;;;2.53;0.70;;;;;;;-145.06;0.00;60892.56;5940276;23;20010;-93
2022/06/20 07:05:48;;;;;;;2.13;0.40;;;;;;;-145.06;0.00;60892.56;5940534;23;20006;-93
2022/06/20 07:08:35;;;;;;;1.25;0.40;;;;;;;-145.06;0.00;60892.56;5939680;23;20009;-92
2022/06/20 07:11:21;;;;;;;2.10;0.50;;;;;;;-145.06;0.00;60892.56;5939637;23;20241;-93
2022/06/20 07:14:17;;;;;;;2.80;0.38;;;;;;;-145.06;0.00;60892.56;5942326;23;20009;-93
2022/06/20 07:17:08;;;;;;;0.77;0.40;;;;;;;-145.06;0.00;60892.56;5944844;23;20005;-92
2022/06/20 07:19:51;;;;;;;2.38;0.30;;;;;;;-145.06;0.00;60892.56;5951900;23;20009;-92
2022/06/20 07:37:49;;;;;;;1.55;0.60;;;;;;;-145.06;0.00;60892.56;5940328;23;20005;-93
2022/06/20 07:41:02;;;;;;;0.75;0.40;;;;;;;-145.06;0.00;60892.56;5964617;23;20013;-93
2022/06/20 07:44:06;;;;;;;1.27;0.55;;;;;;;-145.06;0.00;60892.56;5966482;23;20057;-93
2022/06/20 12:57:46;;;;;;;0.73;0.40;;;;;;;-145.06;0.00;60892.56;5925897;23;20024;-92
2022/06/20 13:01:12;;;;;;;0.65;0.30;;;;;;;-145.06;0.00;60892.56;5940080;23;20021;-95
2022/06/20 13:04:29;;;;;;;0.60;0.30;;;;;;;-145.06;0.00;60892.56;5917778;23;20347;-92
2022/06/20 13:11:23;;;;;;;0.45;0.25;;;;;;;-145.06;0.00;60892.56;5925028;23;20569;-92
2022/06/20 13:14:19;;;;;;;0.75;0.35;;;;;;;-145.06;0.00;60892.56;5940236;23;20025;-92
2022/06/20 13:17:55;;;;;;;0.50;0.30;;;;;;;-145.06;0.00;60892.56;5940590;23;20009;-92
2022/06/20 13:21:18;;;;;;;1.17;0.60;;;;;;;-145.06;0.00;60892.56;5856743;23;20009;-94
2022/06/20 13:24:41;;;;;;;0.65;0.30;;;;;;;-145.06;0.00;60892.56;5941083;23;20369;-94
2022/06/20 13:28:05;;;;;;;0.47;0.38;;;;;;;-145.06;0.00;60892.56;5940694;23;20009;-94
2022/06/20 13:31:02;;;;;;;0.47;0.30;;;;;;;-145.06;0.00;60892.56;5939573;23;20318;-93
2022/06/20 13:37:28;;;;;;;0.90;0.40;;;;;;;-145.06;0.00;60892.56;5950623;23;20013;-95
2022/06/20 13:40:15;;;;;;;0.45;0.30;;;;;;;-145.06;0.00;60892.56;5939296;23;20005;-95
2022/06/20 13:43:00;;;;;;;1.15;0.30;;;;;;;22.21;0.00;60892.56;5936745;23;20085;-94
2022/06/20 13:45:59;;;;;;;0.85;0.38;;;;;;;-145.06;0.00;60892.56;5939073;23;20006;-94
2022/06/20 13:49:10;;;;;;;1.55;0.30;;;;;;;-145.06;0.00;60892.56;5942934;23;20006;-93
2022/06/20 13:52:44;;;;;;;0.45;0.40;;;;;;;-145.06;0.00;60892.56;5941890;23;20009;-94
2022/06/20 14:09:53;;;;;;;0.70;0.40;;;;;;;-145.06;0.00;60892.56;5942358;23;20045;-93
2022/06/20 14:13:15;;;;;;;0.82;0.40;;;;;;;-145.06;0.00;60892.56;5940236;23;20009;-93
2022/06/20 14:16:20;;;;;;;0.80;0.43;;;;;;;-145.06;0.00;60892.56;5911671;23;20006;-93
2022/06/20 14:19:25;;;;;;;1.00;0.50;;;;;;;-145.06;0.00;60892.56;5912073;23;20014;-92
2022/06/20 14:22:50;;;;;;;0.50;0.32;;;;;;;-145.06;0.00;60892.56;5911736;23;20041;-94
2022/06/20 14:26:32;;;;;;;1.45;0.30;;;;;;;-145.06;0.00;60892.56;5911243;23;20014;-93
